createdAt,value
2022-09-09T00:01:11.867Z,74.70
2022-09-09T00:03:48.016Z,74.90
2022-09-09T00:06:25.025Z,75.00
2022-09-09T00:09:01.455Z,75.00
2022-09-09T00:11:44.020Z,75.00
2022-09-09T00:14:17.544Z,75.10
2022-09-09T00:16:50.361Z,75.10
2022-09-09T00:19:38.263Z,75.20
2022-09-09T00:22:16.807Z,75.30
2022-09-09T00:24:48.285Z,75.30
2022-09-09T00:27:28.595Z,75.20
2022-09-09T00:30:20.547Z,75.20
2022-09-09T00:32:49.517Z,75.30
2022-09-09T00:35:29.975Z,75.20
2022-09-09T00:38:01.258Z,75.30
2022-09-09T00:40:35.409Z,75.30
2022-09-09T00:43:23.993Z,75.30
2022-09-09T00:46:17.052Z,75.40
2022-09-09T00:49:22.253Z,75.40
2022-09-09T00:52:00.080Z,75.40
2022-09-09T00:54:54.475Z,75.30
2022-09-09T00:57:29.168Z,75.40
2022-09-09T01:00:18.774Z,75.40
2022-09-09T01:03:26.474Z,75.40
2022-09-09T01:06:02.244Z,75.50
2022-09-09T01:08:57.115Z,75.40
2022-09-09T01:11:48.003Z,75.50
2022-09-09T01:14:26.675Z,75.40
2022-09-09T01:16:57.410Z,75.40
2022-09-09T01:20:07.847Z,75.40
2022-09-09T01:22:46.188Z,75.40
2022-09-09T01:25:49.542Z,75.30
2022-09-09T01:28:23.379Z,75.20
2022-09-09T01:30:50.371Z,75.30
2022-09-09T01:33:18.999Z,75.20
2022-09-09T01:36:15.482Z,75.40
2022-09-09T01:38:42.169Z,75.60
2022-09-09T01:41:08.739Z,75.50
2022-09-09T01:43:35.339Z,75.50
2022-09-09T01:46:03.489Z,75.60
2022-09-09T01:48:30.783Z,75.60
2022-09-09T01:50:57.588Z,75.60
2022-09-09T01:53:24.395Z,75.60
2022-09-09T01:56:36.467Z,75.50
2022-09-09T01:59:15.435Z,75.70
2022-09-09T02:01:50.708Z,75.70
2022-09-09T02:04:32.621Z,75.80
2022-09-09T02:07:00.955Z,76.00
2022-09-09T02:09:30.461Z,76.00
2022-09-09T02:12:06.512Z,76.00
2022-09-09T02:14:39.049Z,76.10
2022-09-09T02:17:20.275Z,76.10
2022-09-09T02:19:53.184Z,76.10
2022-09-09T02:22:23.721Z,76.20
2022-09-09T02:24:55.843Z,76.10
2022-09-09T02:27:23.915Z,76.10
2022-09-09T02:29:52.185Z,76.10
2022-09-09T02:32:24.982Z,76.10
2022-09-09T02:35:00.332Z,76.10
2022-09-09T02:37:32.624Z,76.10
2022-09-09T02:39:59.484Z,76.00
2022-09-09T02:42:26.132Z,76.10
2022-09-09T02:44:52.754Z,76.10
2022-09-09T02:47:30.604Z,76.10
2022-09-09T02:50:09.409Z,76.30
2022-09-09T02:53:03.602Z,76.30
2022-09-09T02:55:51.095Z,76.30
2022-09-09T02:58:19.419Z,76.20
2022-09-09T03:00:51.629Z,76.20
2022-09-09T03:03:20.479Z,76.20
2022-09-09T03:05:47.326Z,76.20
2022-09-09T03:08:14.170Z,76.30
2022-09-09T03:10:40.928Z,76.40
2022-09-09T03:13:07.748Z,76.50
2022-09-09T03:15:35.074Z,76.50
2022-09-09T03:18:02.492Z,76.40
2022-09-09T03:20:30.938Z,76.40
2022-09-09T03:22:58.094Z,76.40
2022-09-09T03:25:24.851Z,76.40
2022-09-09T03:27:55.294Z,76.50
2022-09-09T03:30:29.887Z,76.50
2022-09-09T03:32:57.249Z,76.60
2022-09-09T03:35:27.788Z,76.50
2022-09-09T03:37:56.685Z,76.60
2022-09-09T03:40:25.266Z,76.50
2022-09-09T03:42:53.261Z,76.50
2022-09-09T03:45:19.967Z,76.60
2022-09-09T03:47:47.079Z,76.60
2022-09-09T03:50:20.191Z,76.60
2022-09-09T03:52:47.932Z,76.70
2022-09-09T03:55:14.693Z,76.70
2022-09-09T03:57:41.323Z,76.70
2022-09-09T04:00:09.145Z,76.70
2022-09-09T04:02:35.834Z,76.70
2022-09-09T04:05:02.725Z,76.70
2022-09-09T04:07:29.487Z,76.70
2022-09-09T04:09:56.407Z,76.60
2022-09-09T04:12:23.724Z,76.60
2022-09-09T04:14:50.417Z,76.60
2022-09-09T04:17:18.411Z,76.70
2022-09-09T04:19:45.105Z,76.60
2022-09-09T04:22:11.720Z,76.60
2022-09-09T04:24:38.336Z,76.70
2022-09-09T04:27:05.231Z,76.70
2022-09-09T04:29:31.942Z,76.70
2022-09-09T04:31:58.614Z,76.80
2022-09-09T04:34:26.081Z,76.90
2022-09-09T04:36:53.054Z,77.00
2022-09-09T04:39:20.552Z,77.00
2022-09-09T04:41:48.060Z,77.10
2022-09-09T04:44:14.762Z,77.10
2022-09-09T04:46:42.406Z,77.10
2022-09-09T04:49:11.994Z,77.10
2022-09-09T04:51:41.620Z,77.20
2022-09-09T04:54:08.375Z,77.20
2022-09-09T04:56:35.163Z,77.20
2022-09-09T04:59:03.775Z,77.20
2022-09-09T05:01:30.738Z,77.20
2022-09-09T05:03:57.372Z,77.20
2022-09-09T05:06:24.231Z,77.20
2022-09-09T05:08:51.609Z,77.20
2022-09-09T05:11:21.185Z,77.30
2022-09-09T05:13:49.330Z,77.30
2022-09-09T05:16:18.687Z,77.30
2022-09-09T05:18:50.513Z,77.40
2022-09-09T05:21:18.418Z,77.30
2022-09-09T05:23:46.664Z,77.40
2022-09-09T05:26:18.265Z,77.40
2022-09-09T05:28:45.488Z,77.30
2022-09-09T05:31:13.725Z,77.30
2022-09-09T05:33:43.901Z,77.30
2022-09-09T05:36:14.228Z,77.40
2022-09-09T05:38:41.573Z,77.50
2022-09-09T05:41:08.727Z,77.50
2022-09-09T05:43:36.626Z,77.50
2022-09-09T05:46:11.092Z,77.50
2022-09-09T05:48:39.609Z,77.50
2022-09-09T05:51:09.439Z,77.50
2022-09-09T05:53:36.084Z,77.60
2022-09-09T05:56:08.408Z,77.70
2022-09-09T05:58:35.817Z,77.70
2022-09-09T06:01:23.326Z,77.80
2022-09-09T06:03:51.350Z,77.80
2022-09-09T06:06:23.272Z,77.80
2022-09-09T06:08:52.614Z,77.90
2022-09-09T06:11:21.665Z,77.90
2022-09-09T06:13:48.868Z,78.00
2022-09-09T06:16:19.561Z,78.10
2022-09-09T06:18:46.352Z,78.10
2022-09-09T06:21:17.697Z,78.30
2022-09-09T06:23:48.559Z,78.30
2022-09-09T06:26:18.257Z,78.20
2022-09-09T06:28:49.205Z,78.30
2022-09-09T06:31:28.081Z,78.40
2022-09-09T06:33:57.068Z,78.50
2022-09-09T06:36:25.983Z,78.70
2022-09-09T06:38:52.549Z,78.80
2022-09-09T06:41:21.516Z,78.80
2022-09-09T06:43:48.564Z,79.10
2022-09-09T06:46:25.250Z,79.10
2022-09-09T06:48:52.757Z,79.20
2022-09-09T06:51:24.364Z,79.30
2022-09-09T06:53:54.509Z,79.40
2022-09-09T06:56:25.338Z,79.30
2022-09-09T06:58:53.377Z,79.30
2022-09-09T07:01:25.195Z,79.40
2022-09-09T07:03:54.150Z,79.50
2022-09-09T07:06:24.597Z,79.60
2022-09-09T07:09:00.145Z,79.50
2022-09-09T07:11:29.580Z,79.50
2022-09-09T07:13:58.349Z,79.50
2022-09-09T07:16:25.861Z,79.40
2022-09-09T07:18:53.666Z,79.30
2022-09-09T07:21:21.872Z,79.40
2022-09-09T07:23:48.524Z,79.30
2022-09-09T07:26:18.069Z,79.30
2022-09-09T07:28:47.233Z,79.30
2022-09-09T07:34:09.920Z,79.20
2022-09-09T07:36:41.264Z,79.10
2022-09-09T07:39:14.046Z,79.10
2022-09-09T07:41:46.204Z,80.00
2022-09-09T07:44:19.575Z,79.40
2022-09-09T07:46:46.754Z,79.10
2022-09-09T07:49:13.634Z,78.90
2022-09-09T07:54:46.573Z,78.80
2022-09-09T07:57:13.526Z,78.70
2022-09-09T07:59:40.127Z,78.50
2022-09-09T08:02:07.567Z,78.30
2022-09-09T08:04:34.164Z,78.10
2022-09-09T08:07:03.938Z,78.00
2022-09-09T08:09:30.624Z,77.90
2022-09-09T08:11:58.164Z,77.70
2022-09-09T08:14:25.639Z,77.70
2022-09-09T08:16:54.952Z,77.70
2022-09-09T08:19:21.845Z,77.70
2022-09-09T08:21:49.885Z,77.50
2022-09-09T08:24:16.490Z,77.30
2022-09-09T08:26:45.994Z,77.00
2022-09-09T08:29:14.603Z,77.10
2022-09-09T08:31:47.738Z,77.10
2022-09-09T08:34:15.132Z,77.10
2022-09-09T08:36:44.741Z,77.10
2022-09-09T08:39:14.205Z,77.00
2022-09-09T08:41:54.997Z,77.10
2022-09-09T08:44:48.882Z,77.10
2022-09-09T08:47:21.672Z,77.00
2022-09-09T08:50:24.527Z,76.90
2022-09-09T08:52:58.257Z,76.80
2022-09-09T08:55:39.858Z,77.00
2022-09-09T08:58:41.370Z,77.10
2022-09-09T09:01:22.104Z,77.10
2022-09-09T09:03:57.708Z,76.90
2022-09-09T09:06:59.953Z,76.90
2022-09-09T09:09:53.731Z,76.70
2022-09-09T09:12:27.230Z,76.50
2022-09-09T09:14:56.327Z,76.30
2022-09-09T09:17:28.418Z,76.30
2022-09-09T09:19:55.140Z,76.20
2022-09-09T09:22:38.371Z,76.20
2022-09-09T09:25:18.875Z,76.30
2022-09-09T09:28:07.130Z,76.20
2022-09-09T09:30:40.422Z,76.20
2022-09-09T09:33:21.284Z,75.90
2022-09-09T09:35:50.404Z,76.00
2022-09-09T09:41:15.438Z,75.80
2022-09-09T09:43:45.316Z,75.80
2022-09-09T09:46:27.148Z,75.70
2022-09-09T09:49:06.365Z,75.80
2022-09-09T09:51:34.358Z,75.70
2022-09-09T09:54:14.449Z,75.70
2022-09-09T09:56:41.897Z,75.40
2022-09-09T09:59:23.469Z,75.20
2022-09-09T10:02:18.139Z,75.50
2022-09-09T10:04:46.300Z,75.30
2022-09-09T10:07:23.179Z,75.50
2022-09-09T10:09:55.803Z,75.80
2022-09-09T10:12:47.585Z,76.10
2022-09-09T10:15:46.586Z,76.10
2022-09-09T10:18:36.905Z,76.10
2022-09-09T10:21:21.608Z,76.10
2022-09-09T10:23:58.834Z,76.20
2022-09-09T10:26:28.210Z,75.90
2022-09-09T10:29:17.775Z,75.80
2022-09-09T10:32:03.902Z,75.60
2022-09-09T10:34:51.588Z,75.60
2022-09-09T10:37:59.834Z,75.60
2022-09-09T10:40:40.296Z,75.80
2022-09-09T10:43:43.643Z,76.10
2022-09-09T10:46:31.796Z,76.30
2022-09-09T10:49:19.391Z,76.30
2022-09-09T10:52:07.439Z,76.40
2022-09-09T10:55:12.472Z,76.40
2022-09-09T10:57:53.055Z,76.60
2022-09-09T11:00:23.901Z,76.60
2022-09-09T11:03:00.054Z,76.50
2022-09-09T11:05:41.742Z,76.70
2022-09-09T11:08:19.496Z,76.90
2022-09-09T11:10:56.258Z,77.90
2022-09-09T11:13:32.646Z,77.50
2022-09-09T11:16:30.797Z,77.30
2022-09-09T11:19:04.246Z,77.20
2022-09-09T11:21:43.548Z,76.80
2022-09-09T11:24:26.892Z,76.50
2022-09-09T11:27:14.592Z,76.50
2022-09-09T11:30:06.680Z,76.30
2022-09-09T11:32:45.095Z,75.50
2022-09-09T11:35:31.943Z,75.70
2022-09-09T11:38:22.533Z,75.80
2022-09-09T11:41:00.413Z,75.70
2022-09-09T11:43:34.418Z,75.70
2022-09-09T11:46:03.562Z,76.00
2022-09-09T11:48:46.390Z,75.90
2022-09-09T11:51:22.098Z,75.70
2022-09-09T11:53:53.499Z,75.10
2022-09-09T11:56:45.887Z,74.80
2022-09-09T11:59:26.195Z,75.00
2022-09-09T12:02:17.779Z,75.20
2022-09-09T12:05:13.117Z,75.50
2022-09-09T12:07:48.464Z,75.50
2022-09-09T12:10:33.732Z,75.70
2022-09-09T12:13:20.163Z,75.60
2022-09-09T12:15:52.724Z,75.60
2022-09-09T12:18:40.361Z,75.60
2022-09-09T12:21:34.528Z,75.10
2022-09-09T12:24:11.518Z,75.30
2022-09-09T12:26:54.568Z,75.40
2022-09-09T12:29:56.403Z,75.60
2022-09-09T12:32:27.766Z,75.50
2022-09-09T12:35:22.249Z,75.70
2022-09-09T12:37:54.946Z,76.10
2022-09-09T12:40:35.898Z,76.40
2022-09-09T12:43:17.196Z,76.30
2022-09-09T12:45:44.066Z,76.20
2022-09-09T12:48:18.365Z,76.20
2022-09-09T12:50:46.994Z,75.90
2022-09-09T12:53:38.128Z,75.80
2022-09-09T12:56:08.921Z,75.80
2022-09-09T12:58:38.120Z,76.00
2022-09-09T13:01:06.739Z,76.10
2022-09-09T13:03:43.663Z,76.20
2022-09-09T13:06:20.541Z,76.00
2022-09-09T13:08:47.177Z,76.00
2022-09-09T13:11:40.594Z,75.90
2022-09-09T13:14:07.478Z,75.90
2022-09-09T13:16:40.440Z,75.70
2022-09-09T13:19:11.302Z,75.80
2022-09-09T13:21:39.748Z,74.30
2022-09-09T13:24:21.553Z,74.00
2022-09-09T13:27:15.580Z,73.40
2022-09-09T13:29:58.566Z,73.50
2022-09-09T13:32:29.923Z,73.40
2022-09-09T13:35:02.354Z,73.40
2022-09-09T13:37:28.860Z,73.30
2022-09-09T13:39:55.870Z,73.30
2022-09-09T13:42:28.904Z,73.60
2022-09-09T13:44:56.994Z,73.70
2022-09-09T13:47:33.400Z,73.80
2022-09-09T13:50:10.446Z,74.00
2022-09-09T13:52:37.007Z,74.00
2022-09-09T13:55:03.718Z,73.90
2022-09-09T13:57:30.376Z,73.50
2022-09-09T14:00:05.805Z,73.60
2022-09-09T14:02:33.553Z,73.50
2022-09-09T14:05:00.157Z,73.40
2022-09-09T14:07:26.781Z,73.30
2022-09-09T14:09:53.424Z,73.50
2022-09-09T14:12:21.015Z,73.40
2022-09-09T14:14:47.587Z,73.20
2022-09-09T14:17:15.290Z,73.20
2022-09-09T14:19:41.880Z,73.20
2022-09-09T14:22:08.648Z,73.40
2022-09-09T14:24:35.360Z,73.70
2022-09-09T14:27:02.050Z,73.90
2022-09-09T14:29:28.606Z,73.70
2022-09-09T14:31:55.731Z,73.60
2022-09-09T14:34:22.323Z,73.70
2022-09-09T14:36:49.493Z,73.80
2022-09-09T14:39:16.044Z,74.00
2022-09-09T14:41:42.655Z,74.10
2022-09-09T14:44:09.532Z,74.40
2022-09-09T14:46:36.121Z,74.40
2022-09-09T14:49:02.695Z,74.70
2022-09-09T14:51:29.521Z,74.80
2022-09-09T14:53:59.848Z,74.90
2022-09-09T14:56:28.643Z,75.20
2022-09-09T14:58:56.727Z,75.40
2022-09-09T15:01:23.694Z,75.90
2022-09-09T15:03:53.115Z,76.30
2022-09-09T15:06:21.330Z,76.40
2022-09-09T15:08:48.889Z,76.20
2022-09-09T15:11:15.893Z,76.10
2022-09-09T15:13:43.497Z,75.90
2022-09-09T15:16:15.891Z,75.80
2022-09-09T15:18:46.367Z,75.40
2022-09-09T15:21:22.293Z,75.60
2022-09-09T15:23:49.576Z,75.20
2022-09-09T15:26:16.627Z,74.70
2022-09-09T15:29:21.955Z,74.60
2022-09-09T15:31:50.434Z,74.30
2022-09-09T15:34:17.451Z,74.30
2022-09-09T15:36:48.249Z,74.20
2022-09-09T15:39:17.216Z,74.00
2022-09-09T15:41:45.510Z,73.80
2022-09-09T15:44:13.932Z,73.60
2022-09-09T15:46:49.468Z,73.70
2022-09-09T15:49:23.202Z,73.80
2022-09-09T15:51:59.777Z,74.60
2022-09-09T15:54:27.380Z,73.80
2022-09-09T15:57:02.273Z,73.90
2022-09-09T15:59:34.994Z,74.10
2022-09-09T16:02:11.020Z,74.10
2022-09-09T16:04:39.283Z,74.00
2022-09-09T16:07:06.758Z,74.10
2022-09-09T16:09:34.455Z,74.00
2022-09-09T16:12:02.433Z,73.60
2022-09-09T16:14:31.238Z,73.50
2022-09-09T16:16:57.988Z,73.40
2022-09-09T16:19:24.694Z,73.40
2022-09-09T16:21:52.609Z,73.50
2022-09-09T16:27:02.894Z,73.20
2022-09-09T16:29:30.185Z,73.10
2022-09-09T16:32:01.367Z,73.00
2022-09-09T16:34:30.113Z,72.90
2022-09-09T16:36:57.194Z,72.60
2022-09-09T16:39:24.162Z,72.60
2022-09-09T16:41:51.004Z,72.70
2022-09-09T16:44:19.738Z,72.60
2022-09-09T16:46:49.599Z,72.50
2022-09-09T16:49:23.173Z,72.60
2022-09-09T16:52:02.317Z,72.70
2022-09-09T16:54:30.110Z,72.70
2022-09-09T16:56:59.708Z,72.60
2022-09-09T16:59:27.393Z,72.70
2022-09-09T17:01:55.505Z,72.50
2022-09-09T17:04:29.159Z,72.60
2022-09-09T17:07:01.382Z,72.70
2022-09-09T17:09:31.417Z,72.80
2022-09-09T17:12:04.387Z,72.80
2022-09-09T17:14:32.119Z,73.10
2022-09-09T17:17:13.629Z,73.20
2022-09-09T17:19:45.323Z,73.30
2022-09-09T17:22:17.315Z,74.20
2022-09-09T17:24:47.311Z,73.50
2022-09-09T17:27:14.994Z,73.50
2022-09-09T17:30:02.597Z,73.60
2022-09-09T17:32:36.768Z,73.70
2022-09-09T17:35:13.841Z,73.70
2022-09-09T17:37:40.847Z,73.80
2022-09-09T17:40:11.291Z,73.80
2022-09-09T17:42:38.256Z,73.70
2022-09-09T17:45:12.643Z,73.80
2022-09-09T17:47:39.556Z,73.80
2022-09-09T17:50:07.523Z,73.90
2022-09-09T17:52:34.408Z,74.10
2022-09-09T17:55:02.413Z,74.20
2022-09-09T17:57:29.040Z,74.30
2022-09-09T17:59:55.609Z,74.20
2022-09-09T18:02:22.599Z,75.00
2022-09-09T18:04:49.927Z,74.20
2022-09-09T18:07:16.599Z,74.20
2022-09-09T18:09:43.848Z,74.30
2022-09-09T18:12:10.645Z,74.30
2022-09-09T18:14:37.244Z,74.40
2022-09-09T18:17:04.463Z,74.40
2022-09-09T18:19:32.885Z,74.40
2022-09-09T18:22:02.388Z,74.40
2022-09-09T18:24:30.352Z,74.40
2022-09-09T18:27:00.521Z,74.40
2022-09-09T18:29:28.316Z,74.40
2022-09-09T18:31:55.890Z,74.40
2022-09-09T18:34:25.746Z,74.50
2022-09-09T18:36:56.860Z,74.60
2022-09-09T18:39:27.536Z,74.70
2022-09-09T18:42:00.620Z,74.70
2022-09-09T18:44:33.519Z,74.80
2022-09-09T18:47:00.264Z,75.00
2022-09-09T18:49:27.787Z,75.00
2022-09-09T18:51:57.509Z,75.20
2022-09-09T18:54:29.410Z,75.30
2022-09-09T18:56:56.043Z,75.50
2022-09-09T19:02:22.194Z,75.60
2022-09-09T19:04:54.996Z,75.80
2022-09-09T19:07:25.462Z,75.90
2022-09-09T19:09:55.128Z,76.00
2022-09-09T19:12:31.757Z,76.00
2022-09-09T19:15:00.488Z,76.10
2022-09-09T19:17:32.040Z,76.20
2022-09-09T19:20:05.378Z,77.00
2022-09-09T19:22:32.044Z,76.20
2022-09-09T19:25:00.007Z,76.20
2022-09-09T19:27:27.588Z,76.30
2022-09-09T19:29:57.051Z,76.40
2022-09-09T19:35:19.613Z,76.50
2022-09-09T19:37:46.670Z,76.60
2022-09-09T19:40:14.292Z,76.60
2022-09-09T19:42:41.052Z,76.60
2022-09-09T19:45:10.529Z,76.60
2022-09-09T19:47:37.234Z,76.70
2022-09-09T19:50:05.687Z,76.70
2022-09-09T19:52:32.362Z,76.70
2022-09-09T19:54:59.470Z,76.80
2022-09-09T19:57:30.242Z,76.80
2022-09-09T19:59:57.501Z,76.90
2022-09-09T20:02:25.243Z,76.90
2022-09-09T20:04:51.976Z,76.90
2022-09-09T20:07:19.185Z,76.90
2022-09-09T20:09:59.204Z,77.10
2022-09-09T20:12:47.777Z,77.20
2022-09-09T20:15:14.707Z,77.30
2022-09-09T20:17:41.470Z,77.20
2022-09-09T20:20:08.672Z,77.30
2022-09-09T20:22:35.343Z,77.20
2022-09-09T20:25:02.819Z,77.20
2022-09-09T20:27:29.560Z,77.20
2022-09-09T20:29:56.255Z,77.20
2022-09-09T20:32:22.960Z,77.10
2022-09-09T20:34:50.256Z,77.20
2022-09-09T20:37:17.593Z,77.10
2022-09-09T20:39:46.301Z,77.10
2022-09-09T21:04:15.857Z,77.20
2022-09-09T21:07:13.618Z,77.20
2022-09-09T21:27:18.932Z,77.60
2022-09-09T21:29:45.964Z,77.60
2022-09-09T21:32:12.524Z,77.70
2022-09-09T21:34:39.276Z,77.80
2022-09-09T21:37:05.870Z,77.80
2022-09-09T21:39:32.460Z,77.90
2022-09-09T21:41:59.113Z,77.80
2022-09-09T21:44:26.633Z,77.90
2022-09-09T21:46:53.268Z,78.00
2022-09-09T21:49:19.819Z,78.00
2022-09-09T21:51:47.501Z,78.00
2022-09-09T21:54:14.122Z,78.00
2022-09-09T21:56:40.671Z,78.00
2022-09-09T21:59:07.227Z,78.00
2022-09-09T22:01:34.003Z,78.00
2022-09-09T22:04:01.020Z,78.00
2022-09-09T22:06:27.660Z,77.90
2022-09-09T22:08:57.116Z,77.90
2022-09-09T22:11:25.215Z,77.90
2022-09-09T22:13:53.254Z,78.00
2022-09-09T22:16:22.401Z,77.90
2022-09-09T22:18:57.384Z,77.90
2022-09-09T22:21:26.242Z,78.00
2022-09-09T22:23:58.001Z,77.90
2022-09-09T22:26:26.883Z,77.90
2022-09-09T22:28:53.837Z,78.00
2022-09-09T22:31:22.538Z,77.90
2022-09-09T22:33:50.463Z,78.00
2022-09-09T22:36:17.246Z,78.00
2022-09-09T22:38:43.896Z,78.10
2022-09-09T22:41:10.775Z,78.20
2022-09-09T22:43:37.346Z,78.10
2022-09-09T22:46:04.214Z,78.20
2022-09-09T22:48:35.169Z,78.20
2022-09-09T22:51:06.867Z,78.20
2022-09-09T22:53:35.582Z,78.10
2022-09-09T22:56:05.133Z,79.00
2022-09-09T22:58:33.379Z,78.30
2022-09-09T23:01:00.400Z,78.30
2022-09-09T23:03:28.464Z,78.30
2022-09-09T23:05:57.352Z,78.50
2022-09-09T23:08:35.460Z,78.40
2022-09-09T23:11:09.158Z,78.40
2022-09-09T23:13:41.415Z,78.40
2022-09-09T23:16:12.822Z,78.40
2022-09-09T23:18:43.521Z,78.40
2022-09-09T23:21:12.600Z,78.30
2022-09-09T23:23:41.236Z,78.50
2022-09-09T23:26:09.759Z,78.60
2022-09-09T23:28:38.288Z,78.60
2022-09-09T23:31:12.977Z,78.60
2022-09-09T23:33:40.263Z,78.60
2022-09-09T23:36:09.439Z,78.60
2022-09-09T23:38:37.932Z,78.60
2022-09-09T23:41:06.947Z,78.70
2022-09-09T23:43:37.237Z,78.60
2022-09-09T23:46:03.869Z,78.70
2022-09-09T23:48:31.118Z,78.80
2022-09-09T23:50:59.032Z,78.80
2022-09-09T23:53:26.581Z,78.90
2022-09-09T23:55:53.700Z,78.80
2022-09-09T23:58:20.995Z,78.70
